Time;durP1;ratioP1;P1;durP2;ratioP2;P2;SDS_P1;SDS_P2;PMS_P1;PMS_P2;Temp;Humidity;BMP_temperature;BMP_pressure;BME280_temperature;BME280_humidity;BME280_pressure;Samples;Min_cycle;Max_cycle;Signal;HPM_P1;HPM_P2
2022/05/05 00:01:42;;;;;;;1.67;0.98;;;;;;;19.21;28.11;99816.81;5154012;27;20547;-65
2022/05/05 00:04:09;;;;;;;1.90;0.63;;;;;;;19.29;27.63;99807.91;5154373;27;20499;-65
2022/05/05 00:06:35;;;;;;;3.70;0.80;;;;;;;19.36;27.55;99817.78;5143681;27;20080;-65
2022/05/05 00:09:02;;;;;;;1.92;0.90;;;;;;;19.39;27.35;99821.94;5136265;27;20035;-66
2022/05/05 00:14:23;;;;;;;1.63;0.90;;;;;;;19.34;27.23;99819.78;5135147;27;20033;-66
2022/05/05 00:16:53;;;;;;;1.77;0.80;;;;;;;19.32;27.03;99820.97;5134742;27;20481;-66
2022/05/05 00:19:19;;;;;;;1.10;0.65;;;;;;;19.29;27.08;99822.13;5134349;27;20079;-65
2022/05/05 00:21:45;;;;;;;1.95;0.70;;;;;;;19.28;27.23;99822.31;5134644;27;20027;-66
2022/05/05 00:24:11;;;;;;;1.60;0.90;;;;;;;19.28;27.15;99828.50;5134181;27;20091;-65
2022/05/05 00:26:37;;;;;;;1.52;0.77;;;;;;;19.28;27.03;99831.19;5134301;27;20034;-65
2022/05/05 00:29:02;;;;;;;2.03;0.90;;;;;;;19.26;26.72;99838.59;5134425;27;20079;-65
2022/05/05 00:31:28;;;;;;;1.80;0.80;;;;;;;19.27;26.84;99836.75;5134365;27;20035;-65
2022/05/05 00:33:53;;;;;;;2.10;0.95;;;;;;;19.26;26.86;99838.59;5134185;27;20481;-66
2022/05/05 00:36:19;;;;;;;1.55;0.70;;;;;;;19.27;26.93;99842.09;5134680;27;20023;-65
2022/05/05 00:38:44;;;;;;;1.20;0.80;;;;;;;19.28;26.81;99841.09;5148422;27;20532;-66
2022/05/05 00:41:10;;;;;;;0.93;0.70;;;;;;;19.25;26.87;99847.66;5153659;27;20109;-65
2022/05/05 00:43:36;;;;;;;1.48;0.90;;;;;;;19.26;26.67;99848.47;5153558;27;20161;-66
2022/05/05 00:46:03;;;;;;;1.23;0.93;;;;;;;19.26;26.59;99856.53;5153148;27;20031;-65
2022/05/05 00:48:29;;;;;;;1.50;0.80;;;;;;;19.26;26.60;99843.13;5153002;27;20035;-65
2022/05/05 00:50:55;;;;;;;1.90;1.23;;;;;;;19.26;26.47;99856.53;5153185;27;20420;-66
2022/05/05 00:53:22;;;;;;;6.78;0.65;;;;;;;19.26;26.85;99853.84;5152831;27;20040;-65
2022/05/05 00:55:53;;;;;;;1.40;0.77;;;;;;;19.27;26.65;99863.56;5147861;27;20027;-65
2022/05/05 00:58:19;;;;;;;1.88;0.70;;;;;;;19.24;26.78;99856.72;5117050;27;20083;-65
2022/05/05 01:00:45;;;;;;;1.77;0.82;;;;;;;19.25;26.69;99860.22;5136988;27;20069;-65
2022/05/05 01:03:11;;;;;;;1.70;1.48;;;;;;;19.26;26.72;99864.56;5133528;27;20536;-65
2022/05/05 01:05:40;;;;;;;1.90;1.08;;;;;;;19.26;26.72;99857.38;5133944;27;20046;-66
2022/05/05 01:08:05;;;;;;;2.17;1.20;;;;;;;19.26;26.79;99864.56;5133587;27;20101;-64
2022/05/05 01:10:32;;;;;;;1.48;0.82;;;;;;;19.25;26.92;99863.75;5133640;27;20122;-65
2022/05/05 01:12:57;;;;;;;1.90;0.98;;;;;;;19.26;26.48;99875.31;5133372;27;20023;-65
2022/05/05 01:15:23;;;;;;;2.30;0.90;;;;;;;19.26;26.83;99870.78;5134073;27;20038;-64
2022/05/05 01:17:49;;;;;;;3.88;1.10;;;;;;;19.28;26.90;99884.84;5133142;27;20063;-65
2022/05/05 01:20:16;;;;;;;1.50;0.90;;;;;;;19.27;26.88;99879.66;5152862;27;20363;-65
2022/05/05 01:22:42;;;;;;;1.23;0.82;;;;;;;19.28;26.59;99881.34;5146612;27;20027;-64
2022/05/05 01:30:38;;;;;;;2.35;0.80;;;;;;;19.27;26.67;99893.06;5152998;27;20090;-63
2022/05/05 01:33:15;;;;;;;2.50;1.00;;;;;;;19.28;26.61;99890.22;5152052;27;20481;-65
2022/05/05 01:35:42;;;;;;;1.52;0.80;;;;;;;19.30;26.49;99892.75;5152720;27;20037;-65
2022/05/05 01:38:09;;;;;;;1.45;0.95;;;;;;;19.28;26.50;99892.06;5142882;27;20442;-65
2022/05/05 01:40:36;;;;;;;1.10;0.82;;;;;;;19.28;26.78;99900.13;5133568;27;20111;-65
2022/05/05 01:43:06;;;;;;;2.63;0.82;;;;;;;19.29;26.76;99907.16;5133310;27;20673;-65
2022/05/05 01:45:32;;;;;;;3.47;1.00;;;;;;;19.29;26.91;99915.22;5133080;27;20064;-65
2022/05/05 01:47:58;;;;;;;1.83;0.75;;;;;;;19.30;26.80;99919.56;5132771;27;20107;-64
2022/05/05 01:50:24;;;;;;;1.77;0.90;;;;;;;19.32;26.89;99922.94;5132985;27;20043;-65
2022/05/05 01:52:50;;;;;;;2.45;1.27;;;;;;;19.31;26.71;99923.94;5132827;27;20027;-65
2022/05/05 01:55:16;;;;;;;1.85;1.02;;;;;;;19.33;26.76;99925.44;5133446;27;20033;-64
2022/05/05 01:57:41;;;;;;;2.40;0.80;;;;;;;19.34;26.46;99932.47;5133848;27;20418;-64
2022/05/05 02:00:07;;;;;;;2.38;0.85;;;;;;;19.35;26.68;99930.63;5136515;27;20019;-64
2022/05/05 02:02:33;;;;;;;3.28;0.70;;;;;;;19.36;26.67;99933.16;5133215;28;20497;-65
2022/05/05 02:04:58;;;;;;;4.55;0.90;;;;;;;19.38;26.55;99941.03;5133498;28;20103;-66
2022/05/05 02:07:24;;;;;;;3.55;0.82;;;;;;;19.36;27.02;99934.97;5133563;28;20402;-65
2022/05/05 02:09:49;;;;;;;1.33;0.80;;;;;;;19.16;27.24;99940.69;5133863;28;20062;-65
2022/05/05 02:12:15;;;;;;;2.25;1.10;;;;;;;18.86;27.36;99940.31;5133342;28;20031;-64
2022/05/05 02:14:40;;;;;;;2.30;1.00;;;;;;;18.60;27.82;99941.22;5133392;28;20031;-64
2022/05/05 02:17:06;;;;;;;3.40;1.15;;;;;;;18.40;27.95;99938.00;5133359;27;20489;-64
2022/05/05 02:19:32;;;;;;;1.88;1.00;;;;;;;18.25;28.06;99944.97;5134099;28;20062;-64
2022/05/05 02:21:58;;;;;;;1.67;0.90;;;;;;;18.15;28.13;99953.16;5133294;28;20110;-64
2022/05/05 02:24:23;;;;;;;3.92;1.05;;;;;;;18.04;28.00;99946.22;5133136;28;20081;-64
2022/05/05 02:26:48;;;;;;;2.40;0.98;;;;;;;18.00;28.38;99955.56;5133445;28;20501;-64
2022/05/05 02:29:14;;;;;;;1.88;1.20;;;;;;;17.89;28.26;99959.31;5133061;28;20027;-65
2022/05/05 02:31:40;;;;;;;0.95;0.77;;;;;;;17.83;28.61;99962.66;5133365;27;20072;-65
2022/05/05 02:34:08;;;;;;;2.92;1.13;;;;;;;17.76;28.47;99970.47;5136990;27;20038;-64
2022/05/05 02:39:22;;;;;;;1.73;0.82;;;;;;;17.66;28.59;99981.25;5137343;27;20075;-64
2022/05/05 02:41:48;;;;;;;2.40;0.93;;;;;;;17.65;28.47;99978.72;5137265;27;20068;-64
2022/05/05 02:44:14;;;;;;;1.40;0.80;;;;;;;17.63;28.28;99986.09;5136707;27;20035;-65
2022/05/05 02:46:40;;;;;;;2.55;1.48;;;;;;;17.59;28.26;99984.72;5137105;27;20027;-65
2022/05/05 02:49:05;;;;;;;1.55;0.88;;;;;;;17.55;28.39;99986.88;5136816;27;20212;-65
2022/05/05 02:51:31;;;;;;;2.50;1.20;;;;;;;17.51;28.61;99985.50;5136966;27;20027;-65
2022/05/05 02:56:40;;;;;;;3.65;0.98;;;;;;;17.37;28.56;99998.44;5139200;27;20087;-65
2022/05/05 02:59:06;;;;;;;3.30;1.30;;;;;;;17.35;28.48;100011.09;5157688;27;20038;-64
2022/05/05 03:01:32;;;;;;;4.72;1.10;;;;;;;17.33;28.39;100001.56;5156693;27;21735;-63
2022/05/05 03:03:58;;;;;;;2.45;1.00;;;;;;;17.29;28.37;100011.72;5136593;27;20117;-65
2022/05/05 03:06:23;;;;;;;1.83;1.05;;;;;;;17.28;28.75;100010.03;5136800;27;20065;-66
2022/05/05 03:08:49;;;;;;;2.35;1.00;;;;;;;17.28;28.58;100010.03;5136538;27;20031;-65
2022/05/05 03:11:14;;;;;;;1.83;1.08;;;;;;;17.33;28.48;100010.41;5136114;27;20165;-63
2022/05/05 03:13:40;;;;;;;3.30;0.80;;;;;;;17.37;28.39;100011.81;5136858;27;20031;-64
2022/05/05 03:16:05;;;;;;;1.48;1.08;;;;;;;17.47;28.58;100019.75;5136746;27;20486;-64
2022/05/05 03:18:31;;;;;;;2.05;0.85;;;;;;;17.57;28.36;100014.31;5135848;27;20171;-64
2022/05/05 03:20:56;;;;;;;2.65;1.15;;;;;;;17.72;28.45;100013.75;5136455;27;20031;-64
2022/05/05 03:23:22;;;;;;;3.90;1.00;;;;;;;17.91;28.48;100023.44;5136168;27;20034;-64
2022/05/05 03:25:47;;;;;;;1.00;0.90;;;;;;;18.06;28.27;100026.38;5136439;27;20085;-64
2022/05/05 03:28:13;;;;;;;2.05;1.15;;;;;;;18.25;28.19;100028.84;5136069;27;20027;-64
2022/05/05 03:30:40;;;;;;;1.90;1.30;;;;;;;18.38;28.13;100035.59;5136260;27;20031;-64
2022/05/05 03:33:07;;;;;;;2.92;1.23;;;;;;;18.45;28.11;100042.03;5135832;27;20451;-64
2022/05/05 03:35:33;;;;;;;2.22;1.08;;;;;;;18.47;27.96;100031.97;5136252;27;20402;-64
2022/05/05 03:37:59;;;;;;;2.03;1.35;;;;;;;18.52;27.85;100044.91;5135959;27;20031;-64
2022/05/05 03:40:25;;;;;;;3.05;1.05;;;;;;;18.56;27.78;100055.13;5136515;27;20539;-64
2022/05/05 03:42:51;;;;;;;1.10;1.00;;;;;;;18.64;27.42;100043.63;5135775;27;20074;-65
2022/05/05 03:45:16;;;;;;;1.85;1.00;;;;;;;18.63;27.47;100049.13;5135988;27;20154;-65
2022/05/05 03:47:42;;;;;;;2.35;0.90;;;;;;;18.61;27.36;100055.47;5135488;27;20030;-65
2022/05/05 03:50:08;;;;;;;2.60;1.27;;;;;;;18.66;27.26;100056.84;5117067;27;20039;-65
2022/05/05 03:52:34;;;;;;;3.22;0.95;;;;;;;18.70;27.09;100056.34;5135644;27;20435;-65
2022/05/05 03:54:59;;;;;;;1.27;1.08;;;;;;;18.74;27.11;100060.41;5135970;27;20035;-65
2022/05/05 03:57:25;;;;;;;3.40;1.15;;;;;;;18.77;27.17;100064.59;5135648;27;20030;-64
2022/05/05 03:59:51;;;;;;;2.60;1.27;;;;;;;18.83;27.00;100063.09;5135757;27;20027;-65
2022/05/05 04:02:16;;;;;;;1.38;0.88;;;;;;;18.83;27.12;100063.09;5141603;27;20031;-65
2022/05/05 04:04:42;;;;;;;1.67;1.20;;;;;;;18.83;27.12;100069.31;5156335;27;20027;-64
2022/05/05 04:07:07;;;;;;;2.03;0.98;;;;;;;18.79;27.10;100078.69;5156074;27;20396;-65
2022/05/05 04:09:33;;;;;;;2.20;1.00;;;;;;;18.74;27.48;100078.34;5156297;27;20083;-65
2022/05/05 04:11:58;;;;;;;3.72;1.17;;;;;;;18.72;27.10;100080.34;5155819;27;20464;-65
2022/05/05 04:14:24;;;;;;;2.80;1.23;;;;;;;18.74;27.08;100083.69;5156171;27;20057;-65
2022/05/05 04:16:50;;;;;;;3.45;1.65;;;;;;;18.76;27.15;100087.03;5156198;27;20477;-64
2022/05/05 04:19:15;;;;;;;3.38;1.40;;;;;;;18.81;27.15;100090.09;5156215;27;20512;-65
2022/05/05 04:21:40;;;;;;;2.30;1.42;;;;;;;18.92;26.96;100094.31;5155923;27;20054;-65
2022/05/05 04:24:06;;;;;;;1.95;1.05;;;;;;;18.98;26.69;100092.88;5155795;27;20035;-64
2022/05/05 04:26:32;;;;;;;4.97;1.30;;;;;;;19.02;26.56;100099.59;5151901;27;20109;-65
2022/05/05 04:28:58;;;;;;;1.92;1.15;;;;;;;19.11;26.40;100106.66;5135193;27;20397;-65
2022/05/05 04:31:28;;;;;;;2.30;1.20;;;;;;;19.13;26.29;100099.28;5134643;27;20398;-66
2022/05/05 04:33:53;;;;;;;2.30;1.20;;;;;;;19.27;26.20;100103.16;5135035;27;20035;-66
2022/05/05 04:36:19;;;;;;;1.55;1.05;;;;;;;19.43;26.02;100102.38;5134641;27;20031;-67
2022/05/05 04:38:44;;;;;;;2.35;1.00;;;;;;;19.63;25.99;100110.97;5150549;27;20034;-64
2022/05/05 04:41:10;;;;;;;2.30;1.30;;;;;;;19.90;25.46;100108.97;5155377;27;20030;-64
2022/05/05 04:43:36;;;;;;;3.55;1.15;;;;;;;20.11;25.27;100118.38;5155293;27;20038;-65
2022/05/05 04:46:02;;;;;;;3.35;1.27;;;;;;;20.24;25.04;100121.41;5155295;27;20030;-65
2022/05/05 04:48:28;;;;;;;5.50;1.15;;;;;;;20.34;25.03;100107.78;5155216;27;20034;-65
2022/05/05 04:50:53;;;;;;;2.00;0.82;;;;;;;20.46;24.81;100118.16;5155103;27;20053;-64
2022/05/05 04:53:19;;;;;;;2.40;1.05;;;;;;;20.53;24.81;100121.81;5154993;27;20030;-64
2022/05/05 04:55:44;;;;;;;1.80;0.98;;;;;;;20.60;24.67;100125.53;5154381;27;20031;-65
2022/05/05 04:58:10;;;;;;;1.88;1.13;;;;;;;20.68;24.44;100127.34;5154707;27;20568;-64
2022/05/05 05:00:36;;;;;;;1.63;0.85;;;;;;;20.74;24.38;100129.34;5154817;27;20029;-65
2022/05/05 05:03:01;;;;;;;4.53;1.23;;;;;;;20.79;24.44;100124.31;5154545;27;20117;-65
2022/05/05 05:05:27;;;;;;;3.75;1.20;;;;;;;20.81;24.29;100132.19;5154951;27;20113;-64
2022/05/05 05:07:53;;;;;;;2.30;1.00;;;;;;;20.81;24.16;100137.56;5154813;27;20087;-64
2022/05/05 05:10:18;;;;;;;2.47;1.33;;;;;;;20.77;24.06;100141.66;5154725;27;20037;-65
2022/05/05 05:12:44;;;;;;;4.68;1.00;;;;;;;20.73;23.96;100141.94;5154793;27;20027;-65
2022/05/05 05:15:10;;;;;;;3.25;1.40;;;;;;;20.72;24.01;100139.44;5154890;27;20446;-65
2022/05/05 05:17:36;;;;;;;2.25;1.10;;;;;;;20.68;23.97;100140.78;5134853;27;20039;-64
2022/05/05 05:20:03;;;;;;;2.08;1.02;;;;;;;20.64;23.91;100147.53;5134265;27;20034;-65
2022/05/05 05:22:29;;;;;;;3.33;0.95;;;;;;;20.59;23.74;100153.41;5134051;27;20069;-65
2022/05/05 05:24:54;;;;;;;3.08;1.15;;;;;;;20.59;23.80;100154.25;5134310;27;20054;-66
2022/05/05 05:27:20;;;;;;;2.47;1.05;;;;;;;20.57;23.78;100158.97;5133528;27;20031;-64
2022/05/05 05:29:45;;;;;;;3.15;1.20;;;;;;;20.58;23.90;100149.91;5133603;27;20422;-65
2022/05/05 05:32:11;;;;;;;1.13;0.70;;;;;;;20.57;23.86;100153.59;5133795;27;20087;-66
2022/05/05 05:34:36;;;;;;;3.22;0.75;;;;;;;20.55;23.43;100166.38;5133881;27;20504;-66
2022/05/05 05:37:03;;;;;;;5.53;0.85;;;;;;;20.50;23.58;100167.91;5134878;27;20069;-67
2022/05/05 05:39:30;;;;;;;2.47;1.00;;;;;;;20.50;23.61;100171.41;5154362;27;20083;-66
2022/05/05 05:41:56;;;;;;;3.92;0.70;;;;;;;20.51;23.54;100165.03;5154621;27;20109;-66
2022/05/05 05:44:21;;;;;;;1.98;0.70;;;;;;;20.55;23.60;100170.91;5154457;27;20518;-66
2022/05/05 05:46:47;;;;;;;3.30;0.75;;;;;;;20.55;23.58;100173.59;5154479;27;20374;-66
2022/05/05 05:49:12;;;;;;;2.35;0.80;;;;;;;20.52;23.37;100176.59;5154316;27;20114;-65
2022/05/05 05:51:38;;;;;;;1.65;0.95;;;;;;;20.48;23.49;100164.53;5154351;27;20481;-65
2022/05/05 05:54:04;;;;;;;1.65;0.60;;;;;;;20.40;23.64;100162.69;5154497;27;20035;-65
2022/05/05 05:56:29;;;;;;;4.25;0.85;;;;;;;20.33;23.55;100173.28;5154058;27;20034;-65
2022/05/05 05:58:55;;;;;;;1.58;0.65;;;;;;;20.25;23.35;100175.97;5153941;27;20042;-65
2022/05/05 06:03:53;;;;;;;2.55;0.98;;;;;;;20.17;23.45;100176.81;5154418;27;20058;-67
2022/05/05 06:04:06;;;;;;;0.93;0.50;;;;;;;20.09;23.68;100177.63;5133205;28;20046;-64
2022/05/05 06:06:31;;;;;;;0.90;0.60;;;;;;;20.04;23.51;100174.63;5134656;27;21757;-65
2022/05/05 06:08:57;;;;;;;1.40;0.82;;;;;;;19.97;23.69;100174.47;5137943;27;20035;-65
2022/05/05 06:11:23;;;;;;;2.10;0.73;;;;;;;19.97;23.60;100174.47;5137712;27;20035;-64
2022/05/05 06:13:49;;;;;;;0.93;0.50;;;;;;;19.98;23.50;100172.59;5137317;27;20042;-65
2022/05/05 06:16:14;;;;;;;1.70;0.80;;;;;;;19.91;23.32;100169.75;5136935;27;20035;-64
2022/05/05 06:18:40;;;;;;;1.02;0.50;;;;;;;19.85;23.37;100185.66;5137252;27;20102;-65
2022/05/05 06:21:06;;;;;;;1.83;0.90;;;;;;;19.78;23.50;100177.41;5137560;27;20469;-64
2022/05/05 06:23:32;;;;;;;4.07;1.60;;;;;;;19.80;23.36;100178.94;5137222;27;20087;-65
2022/05/05 06:25:57;;;;;;;2.05;0.50;;;;;;;19.76;23.58;100182.97;5137132;27;20030;-65
2022/05/05 06:28:23;;;;;;;1.83;0.95;;;;;;;19.75;23.43;100192.03;5137490;27;20019;-65
2022/05/05 06:30:48;;;;;;;0.98;0.70;;;;;;;19.75;23.67;100191.16;5137452;27;20469;-65
2022/05/05 06:33:14;;;;;;;1.83;0.70;;;;;;;19.77;23.58;100198.06;5137245;27;20031;-65
2022/05/05 06:35:39;;;;;;;1.65;0.75;;;;;;;19.76;23.37;100188.34;5137798;27;20385;-65
2022/05/05 06:38:05;;;;;;;4.85;0.60;;;;;;;19.73;23.56;100195.84;5136807;27;20062;-65
2022/05/05 06:40:30;;;;;;;1.90;0.95;;;;;;;19.71;23.37;100209.47;5137226;27;20110;-66
2022/05/05 06:42:56;;;;;;;1.13;0.60;;;;;;;19.69;23.34;100197.22;5136992;27;20562;-65
2022/05/05 06:45:22;;;;;;;3.33;0.80;;;;;;;19.64;23.41;100211.09;5137185;27;20084;-65
2022/05/05 06:47:48;;;;;;;0.80;0.60;;;;;;;19.54;23.24;100208.59;5137027;27;20023;-66
2022/05/05 06:50:15;;;;;;;2.28;0.70;;;;;;;19.47;23.34;100205.72;5136892;27;20074;-66
2022/05/05 06:52:40;;;;;;;2.45;0.77;;;;;;;19.42;23.23;100208.03;5136771;27;20179;-66
2022/05/05 06:55:07;;;;;;;1.52;0.50;;;;;;;19.43;23.43;100198.97;5137287;27;20495;-65
2022/05/05 06:57:33;;;;;;;1.48;0.52;;;;;;;19.46;23.23;100209.41;5136707;27;20023;-66
2022/05/05 06:59:58;;;;;;;3.47;0.60;;;;;;;19.45;23.26;100207.72;5136654;27;20050;-66
2022/05/05 07:02:24;;;;;;;2.55;0.50;;;;;;;19.38;23.10;100214.72;5144008;27;20038;-66
2022/05/05 07:07:33;;;;;;;1.63;0.60;;;;;;;19.30;23.13;100220.06;5157529;27;20114;-66
2022/05/05 07:12:43;;;;;;;2.25;0.77;;;;;;;19.18;22.97;100212.31;5157467;27;20041;-66
2022/05/05 07:15:08;;;;;;;0.93;0.60;;;;;;;19.15;22.67;100215.31;5157384;27;20030;-66
2022/05/05 07:17:34;;;;;;;4.05;0.55;;;;;;;19.09;22.43;100217.78;5156680;27;20492;-67
2022/05/05 07:19:59;;;;;;;1.65;1.23;;;;;;;19.02;22.54;100201.50;5156974;27;20034;-66
2022/05/05 07:22:25;;;;;;;0.50;0.32;;;;;;;18.97;22.36;100210.00;5150121;27;20458;-66
2022/05/05 07:24:50;;;;;;;2.17;1.52;;;;;;;18.96;22.50;100204.81;5136519;27;20144;-67
2022/05/05 07:27:16;;;;;;;0.90;0.47;;;;;;;18.91;22.22;100207.94;5145840;27;20047;-66
2022/05/05 07:29:42;;;;;;;2.63;0.60;;;;;;;18.90;22.20;100208.94;5157132;27;20520;-67
2022/05/05 07:32:08;;;;;;;0.90;0.55;;;;;;;18.90;22.12;100208.94;5156854;27;20375;-67
2022/05/05 07:34:34;;;;;;;2.95;0.82;;;;;;;18.87;22.34;100215.47;5156850;27;20030;-66
2022/05/05 07:37:00;;;;;;;0.80;0.47;;;;;;;18.87;22.51;100215.47;5156765;27;20549;-65
2022/05/05 07:39:26;;;;;;;3.45;0.55;;;;;;;18.91;22.30;100214.13;5156939;27;20122;-66
2022/05/05 07:41:51;;;;;;;1.23;0.50;;;;;;;18.89;22.68;100205.44;5156409;27;20452;-65
2022/05/05 07:44:17;;;;;;;1.23;0.60;;;;;;;18.93;22.38;100214.00;5156785;27;20113;-65
2022/05/05 07:46:43;;;;;;;2.80;0.50;;;;;;;18.90;22.40;100198.22;5156954;27;20031;-66
2022/05/05 07:49:08;;;;;;;1.33;0.60;;;;;;;18.96;22.51;100220.91;5156907;27;20031;-66
2022/05/05 07:51:34;;;;;;;1.45;0.52;;;;;;;19.00;22.34;100211.53;5156150;27;20046;-65
2022/05/05 07:56:45;;;;;;;1.58;0.98;;;;;;;19.02;21.90;100222.97;5156922;27;20082;-66
2022/05/05 07:59:11;;;;;;;0.95;0.50;;;;;;;18.97;21.97;100219.91;5156119;27;20034;-65
2022/05/05 08:01:37;;;;;;;2.28;0.50;;;;;;;18.94;22.14;100214.81;5156325;27;20079;-66
2022/05/05 08:04:04;;;;;;;4.63;0.60;;;;;;;18.90;22.45;100217.81;5155616;27;20034;-65
2022/05/05 08:06:30;;;;;;;3.63;1.10;;;;;;;18.90;22.20;100215.13;5155523;27;20172;-65
2022/05/05 08:08:56;;;;;;;4.80;0.82;;;;;;;18.90;21.69;100222.34;5153062;27;20125;-66
2022/05/05 08:11:21;;;;;;;1.27;0.65;;;;;;;18.89;21.78;100223.34;5155193;27;20500;-65
2022/05/05 08:13:46;;;;;;;0.63;0.52;;;;;;;18.89;21.96;100224.19;5154791;27;20039;-66
2022/05/05 08:16:12;;;;;;;1.42;0.52;;;;;;;18.90;21.93;100231.22;5148187;27;20038;-65
2022/05/05 08:18:38;;;;;;;2.33;0.60;;;;;;;18.87;22.33;100215.47;5142203;27;20045;-67
2022/05/05 08:21:10;;;;;;;5.97;1.02;;;;;;;18.89;22.38;100229.56;5138237;27;20031;-67
2022/05/05 08:23:35;;;;;;;1.40;0.63;;;;;;;18.89;22.38;100224.19;5152288;27;20595;-65
2022/05/05 08:28:45;;;;;;;0.85;0.50;;;;;;;19.02;22.44;100218.41;5153455;27;20061;-64
2022/05/05 08:31:11;;;;;;;2.10;0.68;;;;;;;19.06;22.05;100224.28;5151973;27;20171;-65
2022/05/05 08:33:38;;;;;;;0.70;0.60;;;;;;;19.04;22.15;100227.16;5154453;27;20503;-66
2022/05/05 08:36:05;;;;;;;1.27;0.77;;;;;;;19.01;22.55;100222.09;5150937;27;20037;-63
2022/05/05 08:38:31;;;;;;;3.47;0.55;;;;;;;19.02;22.62;100218.41;5154843;27;20034;-65
2022/05/05 08:40:57;;;;;;;4.97;0.82;;;;;;;19.05;22.67;100225.28;5154119;27;20497;-65
2022/05/05 08:43:23;;;;;;;2.05;0.70;;;;;;;19.06;22.62;100221.63;5154102;27;20031;-67
2022/05/05 08:45:50;;;;;;;3.05;1.00;;;;;;;19.13;22.74;100211.09;5154831;27;20046;-67
2022/05/05 08:48:17;;;;;;;3.08;0.95;;;;;;;19.14;22.67;100220.81;5153374;27;20432;-68
2022/05/05 08:50:46;;;;;;;1.08;0.40;;;;;;;19.12;22.41;100229.03;5154899;27;20046;-68
2022/05/05 08:53:16;;;;;;;1.33;0.55;;;;;;;19.08;22.61;100227.66;5155487;27;20049;-69
2022/05/05 08:55:45;;;;;;;1.67;0.52;;;;;;;19.04;22.72;100204.88;5155799;27;20071;-69
2022/05/05 08:58:12;;;;;;;0.65;0.40;;;;;;;19.07;22.95;100207.19;5155213;27;20038;-69
2022/05/05 09:00:38;;;;;;;1.00;0.60;;;;;;;19.11;22.86;100213.09;5155026;27;20060;-68
2022/05/05 09:03:09;;;;;;;1.70;0.77;;;;;;;19.09;22.89;100212.44;5155215;27;20066;-68
2022/05/05 09:05:43;;;;;;;2.25;0.63;;;;;;;19.10;22.92;100216.78;5147864;27;20026;-68
2022/05/05 09:08:11;;;;;;;1.15;0.77;;;;;;;19.11;23.11;100205.06;5134239;27;20080;-68
2022/05/05 09:10:44;;;;;;;0.60;0.50;;;;;;;19.18;22.84;100212.31;5134107;27;20035;-67
2022/05/05 09:13:10;;;;;;;0.93;0.70;;;;;;;19.18;22.55;100214.13;5133839;27;20035;-68
2022/05/05 09:15:37;;;;;;;2.20;0.70;;;;;;;19.20;22.84;100206.78;5134460;27;20038;-68
2022/05/05 09:18:19;;;;;;;3.90;0.60;;;;;;;19.16;22.52;100214.31;5134266;27;20023;-68
2022/05/05 09:20:46;;;;;;;3.40;0.98;;;;;;;19.18;22.49;100217.69;5133921;27;20038;-68
2022/05/05 09:23:29;;;;;;;11.68;4.50;;;;;;;19.19;22.87;100213.97;5133933;27;20045;-68
2022/05/05 09:25:55;;;;;;;20.25;4.40;;;;;;;19.18;23.27;100216.81;5133786;27;20026;-68
2022/05/05 09:28:23;;;;;;;49.03;10.40;;;;;;;19.21;23.35;100213.81;5134429;27;20031;-68
2022/05/05 09:30:51;;;;;;;79.82;16.10;;;;;;;19.23;23.55;100216.34;5133926;27;20397;-68
2022/05/05 09:33:37;;;;;;;102.25;23.10;;;;;;;19.21;23.65;100214.66;5133651;27;20537;-68
2022/05/05 09:36:05;;;;;;;78.63;19.50;;;;;;;19.25;23.58;100215.19;5133693;27;20088;-68
2022/05/05 09:38:54;;;;;;;66.38;17.35;;;;;;;19.29;24.00;100223.75;5133158;27;20041;-68
2022/05/05 09:41:21;;;;;;;83.00;17.33;;;;;;;19.25;23.91;100220.56;5133505;27;20399;-68
2022/05/05 09:43:47;;;;;;;66.75;17.05;;;;;;;19.27;24.19;100231.13;5133888;27;20023;-68
2022/05/05 09:46:21;;;;;;;72.35;16.50;;;;;;;19.31;24.49;100230.63;5133325;27;20039;-68
2022/05/05 09:48:47;;;;;;;64.07;13.68;;;;;;;19.38;24.38;100216.56;5133774;27;20031;-68
2022/05/05 09:51:15;;;;;;;46.63;13.50;;;;;;;19.45;24.44;100229.19;5133266;27;20557;-68
2022/05/05 09:59:42;;;;;;;37.92;10.60;;;;;;;19.44;24.57;100224.81;5050217;28;20033;-68
2022/05/05 10:05:17;;;;;;;35.53;8.45;;;;;;;19.52;24.21;100219.47;5120820;28;20046;-68
2022/05/05 10:07:44;;;;;;;26.85;8.23;;;;;;;19.55;23.85;100217.47;5133004;28;20066;-68
2022/05/05 10:10:11;;;;;;;24.50;6.60;;;;;;;19.54;23.88;100215.78;5133233;28;20482;-68
2022/05/05 10:12:38;;;;;;;18.25;4.88;;;;;;;19.49;23.72;100211.72;5133160;28;20031;-67
2022/05/05 10:15:04;;;;;;;23.98;5.82;;;;;;;19.46;23.54;100211.22;5133574;28;20039;-67
2022/05/05 10:17:30;;;;;;;22.35;5.78;;;;;;;19.43;23.69;100215.09;5133493;28;20031;-68
2022/05/05 10:19:56;;;;;;;17.77;4.55;;;;;;;19.40;23.73;100215.41;5133252;28;20095;-66
2022/05/05 10:22:39;;;;;;;16.77;4.13;;;;;;;19.38;23.55;100211.22;5114579;28;20080;-64
2022/05/05 10:25:16;;;;;;;12.18;3.55;;;;;;;19.40;23.62;100218.09;5133462;28;20463;-67
2022/05/05 10:27:44;;;;;;;18.50;3.88;;;;;;;19.40;23.55;100215.41;5145673;27;20046;-68
2022/05/05 10:30:16;;;;;;;10.95;3.47;;;;;;;19.42;23.48;100208.03;5154319;27;20031;-68
2022/05/05 10:32:41;;;;;;;;;;;;;;;19.43;23.68;100222.28;5153943;27;20508;-68
2022/05/05 10:35:10;;;;;;;5.95;2.00;;;;;;;19.50;23.32;100212.59;5154053;27;19989;-66
2022/05/05 10:37:37;;;;;;;5.57;1.98;;;;;;;19.58;23.17;100211.78;5153482;27;20030;-67
2022/05/05 10:40:08;;;;;;;11.30;2.40;;;;;;;19.66;22.92;100222.53;5153974;27;20053;-68
2022/05/05 10:42:43;;;;;;;9.00;2.08;;;;;;;19.69;23.02;100214.16;5153432;27;20034;-67
2022/05/05 10:45:19;;;;;;;8.95;2.30;;;;;;;19.71;23.05;100212.16;5153690;27;20046;-67
2022/05/05 10:48:06;;;;;;;6.85;2.22;;;;;;;19.70;23.01;100215.84;5153918;27;20039;-67
2022/05/05 10:50:50;;;;;;;4.55;1.80;;;;;;;19.66;22.83;100201.06;5153343;27;20535;-68
2022/05/05 10:53:37;;;;;;;6.00;1.98;;;;;;;19.61;22.93;100206.09;5154474;27;20037;-68
2022/05/05 10:56:06;;;;;;;4.70;1.52;;;;;;;19.56;22.72;100214.59;5158254;27;20161;-67
2022/05/05 10:59:03;;;;;;;6.38;2.33;;;;;;;19.55;23.00;100210.28;5156993;27;20102;-68
2022/05/05 11:01:49;;;;;;;6.57;2.53;;;;;;;19.56;23.51;100208.41;5158057;27;20034;-67
2022/05/05 11:04:20;;;;;;;3.90;1.48;;;;;;;19.62;23.06;100207.78;5136251;27;20038;-68
2022/05/05 11:06:49;;;;;;;3.03;1.10;;;;;;;19.67;22.82;100210.78;5136292;27;20084;-68
2022/05/05 11:09:31;;;;;;;4.85;1.42;;;;;;;19.75;22.72;100207.28;5136904;27;20035;-68
2022/05/05 11:12:16;;;;;;;;;;;;;;;19.72;23.00;100203.09;5137180;27;20076;-68
2022/05/05 11:23:42;;;;;;;4.32;1.25;;;;;;;19.72;22.46;100205.78;5136322;27;20053;-68
2022/05/05 11:26:09;;;;;;;5.45;1.35;;;;;;;19.67;22.68;100211.66;5136406;27;20451;-68
2022/05/05 11:28:36;;;;;;;4.70;1.52;;;;;;;19.67;22.56;100205.41;5135836;27;20448;-68
2022/05/05 11:31:03;;;;;;;6.82;1.08;;;;;;;19.73;22.64;100212.81;5135830;27;20037;-68
2022/05/05 11:33:28;;;;;;;2.20;0.85;;;;;;;19.80;22.53;100211.16;5135716;27;20511;-68
2022/05/05 11:36:06;;;;;;;3.63;1.08;;;;;;;19.81;22.66;100202.09;5136240;27;20030;-68
2022/05/05 11:38:32;;;;;;;2.45;0.98;;;;;;;19.81;22.72;100196.72;5150054;27;20041;-69
2022/05/05 11:41:07;;;;;;;2.33;1.08;;;;;;;19.80;22.26;100189.66;5156953;27;20035;-69
2022/05/05 11:46:18;;;;;;;2.10;0.90;;;;;;;19.83;22.69;100204.63;5157318;27;20095;-69
2022/05/05 11:48:52;;;;;;;1.65;0.90;;;;;;;19.83;22.17;100199.25;5156834;27;20050;-68
2022/05/05 11:51:25;;;;;;;1.67;0.77;;;;;;;19.81;21.71;100203.94;5156209;27;20077;-69
2022/05/05 11:54:04;;;;;;;2.75;1.00;;;;;;;19.82;22.55;100211.00;5157218;27;20058;-68
2022/05/05 11:56:29;;;;;;;2.22;0.90;;;;;;;19.92;22.37;100211.72;5156436;27;20400;-68
2022/05/05 12:01:51;;;;;;;2.28;0.80;;;;;;;20.02;21.71;100202.66;5156619;27;20564;-69
2022/05/05 12:04:18;;;;;;;2.15;1.00;;;;;;;20.07;21.37;100201.13;5156144;27;20071;-69
2022/05/05 12:06:44;;;;;;;2.58;0.70;;;;;;;20.02;21.21;100194.59;5138681;27;20397;-67
2022/05/05 12:09:10;;;;;;;1.40;0.68;;;;;;;19.96;21.32;100196.09;5135495;27;20039;-68
2022/05/05 12:11:36;;;;;;;1.42;1.10;;;;;;;19.88;21.11;100196.94;5135309;27;20031;-68
2022/05/05 12:14:07;;;;;;;3.45;0.65;;;;;;;19.85;21.24;100191.03;5135926;27;20130;-69
2022/05/05 12:16:38;;;;;;;1.98;1.00;;;;;;;19.82;21.24;100201.09;5134942;27;20027;-68